AirNav   Pilot Hours Calculator
 
 824 users online  

7NY7 Palisades Conference Center Heliport
Orangetown, New York, USA

GOING TO ORANGETOWN?


FAA INFORMATION EFFECTIVE 26 MARCH 2020

Location

FAA Identifier: 7NY7
Lat/Long: 41-01-07.3500N 073-55-03.4900W
41-01.122500N 073-55.058167W
41.0187083,-73.9176361
(estimated)
Elevation: 173 ft. / 53 m (estimated)
Variation: 13W (1985)
From city: 3 miles N of ORANGETOWN, NY
Time zone: UTC -4 (UTC -5 during Standard Time)
Zip code: 10976

Heliport Operations

Heliport use: Private use. Permission required prior to landing
Activation date: 06/1991
Control tower: no
ARTCC: NEW YORK CENTER
FSS: NEW YORK FLIGHT SERVICE STATION
Attendance: UNATNDD
Wind indicator: yes
Segmented circle: no

Heliport Communications

WX ASOS at HPN (10 nm E): PHONE 914-288-0216
WX ASOS at TEB (12 nm SW): 132.025 (201-393-0855)
WX ASOS at LGA (15 nm S): PHONE 718-672-6317
WX ASOS at CDW (19 nm SW): 135.5 (973-575-4417)
WX AWOS-3PT at JRB (19 nm S): 128.175 (212-425-1534)

Nearby radio navigation aids

VOR radial/distance  VOR name  Freq  Var
TEBr044/12.1TETERBORO VOR/DME108.4011W
LGAr003/14.3LA GUARDIA VOR/DME113.1012W
CMKr236/21.8CARMEL VOR/DME116.6012W
JFKr356/24.1KENNEDY VOR/DME115.9012W
CRIr009/24.4CANARSIE VOR/DME112.3011W
SAXr107/28.2SPARTA VORTAC115.7011W
DPKr308/31.0DEER PARK VOR/DME117.7012W
BDRr269/36.9BRIDGEPORT VOR/DME108.8012W
HUOr139/38.4HUGUENOT VOR/DME116.1011W
IGNr198/39.0KINGSTON VOR/DME117.6012W

 
NDB name  Hdg/Dist  Freq  Var  ID
CHATHAM067/28.625413WCAT -.-. .- -
STANWYCK181/31.126112WSKU ... -.- ..-
BABYLON325/31.927514WBBN -... -... -.

Heliport Services

Runway Information

Helipad H1

Dimensions: 40 x 40 ft. / 12 x 12 m
Surface: asphalt, in good condition
Runway edge lights: medium intensity
Traffic pattern: leftleft

Heliport Ownership and Management from official FAA records

Ownership: Privately-owned
Owner: HNA TRAINING CENTER NY LLC
1180 AVENUE OF THE AMERICAS, SUITE 1910
NEW YORK, NY 10036
Phone 212-335-2080
Manager: WILLIAM DANIELSON
HNA PALISADES PREMIER CONF CNTR, 334 ROUTE 9W
PALISADES, NY 10964
Phone 845-732-6224
ADDITIONAL CONTACT: CHRIS COSTABILE HNA PALISADES 334 RT 9W 845-732-6300 CHRIS.COSTABLE@HNAPALISADES.COM

Additional Remarks

A52-H1 40 FT TREES 280 FT FROM HELIPAD.
APPROACHES/DEPARTURES ONLY FROM EAST AND WEST.
NO FLY AREA / ZONE NORTH AND SOUTH OF HELIPAD FOR NOISE.
FOR CD CTC NEW YORK APCH AT 800-645-3206.

Instrument Procedures

There are no published instrument procedures at 7NY7.

Some nearby airports with instrument procedures:

KHPN - Westchester County Airport (10 nm E)
KTEB - Teterboro Airport (12 nm SW)
KLGA - LaGuardia Airport (15 nm S)
KJRA - West 30th St Heliport (16 nm S)
6N5 - East 34th Street Heliport (17 nm S)
N07 - Lincoln Park Airport (18 nm W)
KCDW - Essex County Airport (19 nm SW)
KJRB - Downtown Manhattan/Wall Street Heliport (19 nm S)
 
Loc | Ops | Rwys | IFR | FBO | Links
Com | Nav | Svcs | Stats | Notes
Area around 7NY7 (Palisades Conference Center Heliport)
 
Road maps at: MapQuest Bing Google
 
Aerial photo
No photo
 
Sectional chart

 
Airport distance calculator
Flying to Palisades Conference Center Heliport? Find the distance to fly.

From to 7NY7

Sunrise and sunset
Times for 07-Apr-2020
 Local
(UTC-4)
 Zulu
(UTC)
Morning civil twilight06:0110:01
Sunrise06:2910:29
Sunset19:2723:27
Evening civil twilight19:5523:55

Current date and time
Zulu (UTC)  08-Apr-2020 00:36:40
Local (UTC-4)  07-Apr-2020 20:36:40
 
METAR
KHPN 
10nm E 
072356Z 16006KT 10SM CLR 11/M03 A2973 RMK AO2 SLP070 T01111033 10178 20111 56009
KTEB 
11nm SW 
072351Z 19005KT 10SM CLR 13/01 A2972 RMK AO2 SLP065 T01330006 10194 20133 56011
KLGA 
14nm S 
072351Z 18011KT 10SM FEW060 FEW130 BKN250 12/03 A2974 RMK AO2 SLP070 T01220028 10189 20122 56014
KNYC 
14nm S 
072351Z AUTO VRB03KT 10SM CLR 13/02 A2976 RMK AO2 SLP071 T01280022 10200 20128 56013 $
KCDW 
18nm SW 
072353Z 19007KT 10SM CLR 16/01 A2972 RMK AO2 SLP070 T01560006 10206 20156 56011
KJRB 
19nm S 
072356Z AUTO 01003KT 10SM CLR 13/04 A2976 RMK AO2 SLP076 T01280044 10200 20128 56015
TAF
KHPN 
10nm E 
071931Z 0720/0818 VRB06KT P6SM SCT080 FM072200 22008KT P6SM SCT080 FM072300 19009G15KT P6SM SCT080 FM080000 18006KT P6SM BKN080 FM080800 VRB04KT 5SM -RA BR OVC020 FM081300 02005KT P6SM BKN024 AMD NOT SKED
KTEB 
11nm SW 
071927Z 0719/0824 20009KT P6SM SCT080 FM072100 21007KT P6SM SCT080 FM072200 18009G15KT P6SM SCT080 FM080000 16007KT P6SM BKN080 FM080500 VRB03KT P6SM BKN080 FM080600 VRB02KT 5SM -RA BR BKN020 FM081300 27005KT P6SM BKN028 FM081400 33005KT P6SM BKN028 FM081900 01007KT P6SM BKN028 FM082200 05006KT P6SM BKN028
KLGA 
14nm S 
071929Z 0719/0824 21011KT P6SM SCT080 BKN250 FM072200 18011G17KT P6SM SCT080 FM080600 VRB04KT P6SM BKN080 FM080800 VRB04KT 5SM -RA BR OVC020 FM081300 29006KT P6SM BKN030 FM081400 34007KT P6SM BKN030 FM081500 01007KT P6SM BKN030 FM082000 04007KT P6SM BKN030 FM082300 07006KT P6SM BKN030
NOTAMs
Click for the latest NOTAMs
NOTAMs are issued by the DoD/FAA and will open in a separate window not controlled by AirNav.

 

 
 

Would you like to see your business listed on this page?

 If your business provides an interesting product or service to pilots, flight crews, aircraft, or users of the Palisades Conference Center Heliport, you should consider listing it here.  To start the listing process, click on the button below
 
Add a business
 

Other Pages about Palisades Conference Center Heliport

Update a link
 
Copyright © AirNav, LLC. All rights reserved. Privacy Policy  Contact